createdAt,value
2019-05-29T00:00:49.946Z,12.10
2019-05-29T00:05:52.668Z,12.00
2019-05-29T00:10:55.413Z,12.10
2019-05-29T00:15:58.155Z,11.90
2019-05-29T00:21:00.888Z,11.80
2019-05-29T00:26:03.605Z,11.70
2019-05-29T00:31:06.284Z,11.70
2019-05-29T00:36:10.265Z,11.50
2019-05-29T00:41:13.145Z,11.60
2019-05-29T00:46:15.871Z,11.60
2019-05-29T00:51:18.603Z,11.70
2019-05-29T00:56:21.339Z,11.70
2019-05-29T01:01:24.084Z,11.40
2019-05-29T01:06:26.801Z,11.30
2019-05-29T01:11:29.450Z,11.20
2019-05-29T01:16:32.108Z,11.10
2019-05-29T01:21:34.842Z,11.10
2019-05-29T01:26:37.497Z,11.20
2019-05-29T01:31:40.445Z,11.10
2019-05-29T01:36:43.243Z,11.00
2019-05-29T01:41:45.917Z,10.90
2019-05-29T01:46:48.642Z,10.80
2019-05-29T01:51:51.382Z,10.80
2019-05-29T01:56:54.037Z,10.70
2019-05-29T02:01:56.714Z,10.60
2019-05-29T02:06:59.446Z,10.50
2019-05-29T02:12:02.171Z,10.70
2019-05-29T02:17:05.213Z,10.60
2019-05-29T02:22:07.868Z,10.50
2019-05-29T02:27:10.534Z,10.40
2019-05-29T02:32:13.284Z,10.40
2019-05-29T02:37:15.949Z,10.40
2019-05-29T02:42:18.763Z,10.30
2019-05-29T02:47:21.706Z,10.20
2019-05-29T02:52:26.144Z,10.20
2019-05-29T02:57:29.212Z,10.20
2019-05-29T03:02:32.326Z,10.20
2019-05-29T03:07:35.600Z,10.20
2019-05-29T03:12:38.921Z,10.10
2019-05-29T03:17:41.605Z,10.40
2019-05-29T03:22:44.262Z,10.40
2019-05-29T03:27:46.917Z,10.20
2019-05-29T03:32:49.650Z,10.10
2019-05-29T03:37:52.390Z,9.90
2019-05-29T03:42:55.055Z,10.00
2019-05-29T03:47:57.778Z,10.00
2019-05-29T03:53:00.764Z,9.80
2019-05-29T03:58:03.511Z,9.70
2019-05-29T04:03:06.246Z,9.90
2019-05-29T04:08:08.905Z,10.10
2019-05-29T04:13:12.108Z,10.10
2019-05-29T04:18:19.686Z,10.00
2019-05-29T04:23:23.334Z,9.90
2019-05-29T04:28:27.928Z,9.90
2019-05-29T04:33:32.478Z,10.10
2019-05-29T04:38:37.775Z,10.40
2019-05-29T04:43:40.083Z,10.40
2019-05-29T04:48:42.812Z,10.40
2019-05-29T04:53:45.557Z,10.40
2019-05-29T04:58:48.313Z,10.40
2019-05-29T05:03:51.067Z,10.50
2019-05-29T05:08:54.141Z,10.60
2019-05-29T05:13:56.901Z,11.00
2019-05-29T05:18:59.637Z,11.30
2019-05-29T05:24:02.314Z,11.60
2019-05-29T05:29:05.042Z,11.70
2019-05-29T05:34:07.724Z,11.80
2019-05-29T05:39:10.430Z,11.90
2019-05-29T05:44:13.444Z,11.80
2019-05-29T05:49:16.623Z,12.00
2019-05-29T05:54:19.365Z,11.90
2019-05-29T05:59:22.111Z,11.90
2019-05-29T06:04:24.839Z,12.00
2019-05-29T06:09:27.497Z,12.10
2019-05-29T06:14:30.163Z,12.20
2019-05-29T06:19:32.901Z,12.40
2019-05-29T06:24:37.198Z,12.50
2019-05-29T06:29:41.238Z,12.70
2019-05-29T06:34:44.089Z,12.70
2019-05-29T06:39:46.763Z,12.80
2019-05-29T06:44:50.151Z,13.00
2019-05-29T06:49:53.181Z,13.00
2019-05-29T06:55:15.982Z,13.00
2019-05-29T07:00:34.475Z,13.20
2019-05-29T07:05:23.530Z,13.30
2019-05-29T07:10:26.457Z,13.40
2019-05-29T07:15:29.439Z,13.50
2019-05-29T07:20:32.357Z,13.90
2019-05-29T07:25:35.198Z,14.10
2019-05-29T07:30:39.175Z,14.20
2019-05-29T07:35:43.627Z,14.40
2019-05-29T07:40:49.293Z,14.50
2019-05-29T07:45:51.356Z,14.50
2019-05-29T07:51:06.348Z,14.70
2019-05-29T07:55:58.718Z,14.80
2019-05-29T08:06:16.120Z,15.10
2019-05-29T08:11:18.791Z,15.20
2019-05-29T08:16:21.529Z,15.30
2019-05-29T08:21:24.207Z,15.50
2019-05-29T08:26:26.946Z,15.60
2019-05-29T08:31:29.953Z,15.80
2019-05-29T08:36:32.760Z,15.80
2019-05-29T08:41:35.503Z,15.90
2019-05-29T08:46:38.253Z,16.20
2019-05-29T08:51:41.802Z,16.30
2019-05-29T08:56:44.544Z,16.50
2019-05-29T09:01:48.674Z,16.60
2019-05-29T09:06:53.346Z,16.80
2019-05-29T09:11:56.313Z,17.10
2019-05-29T09:16:59.004Z,17.20
2019-05-29T09:22:01.730Z,17.20
2019-05-29T09:27:04.448Z,17.60
2019-05-29T09:32:07.133Z,18.00
2019-05-29T09:37:09.937Z,18.00
2019-05-29T09:42:12.694Z,18.20
2019-05-29T09:47:16.937Z,18.60
2019-05-29T09:52:19.805Z,18.90
2019-05-29T09:57:22.531Z,18.50
2019-05-29T10:02:25.262Z,18.20
2019-05-29T10:07:27.936Z,18.50
2019-05-29T10:12:30.592Z,18.60
2019-05-29T10:17:33.246Z,18.90
2019-05-29T10:22:35.978Z,19.20
2019-05-29T10:27:38.712Z,19.70
2019-05-29T10:32:42.695Z,20.00
2019-05-29T10:37:46.638Z,20.10
2019-05-29T10:42:49.433Z,20.20
2019-05-29T10:47:52.503Z,20.40
2019-05-29T10:52:56.454Z,20.30
2019-05-29T10:57:59.133Z,19.90
2019-05-29T11:03:01.858Z,19.50
2019-05-29T11:08:04.530Z,19.20
2019-05-29T11:13:07.198Z,19.50
2019-05-29T11:18:09.921Z,19.80
2019-05-29T11:23:12.899Z,20.50
2019-05-29T11:28:15.699Z,21.00
2019-05-29T11:33:18.695Z,21.10
2019-05-29T11:38:21.366Z,20.50
2019-05-29T11:43:24.033Z,20.10
2019-05-29T11:48:26.703Z,19.70
2019-05-29T11:53:29.434Z,19.30
2019-05-29T11:58:32.381Z,19.20
2019-05-29T12:03:35.062Z,19.00
2019-05-29T12:08:37.813Z,18.90
2019-05-29T12:13:40.545Z,18.90
2019-05-29T12:18:43.211Z,18.70
2019-05-29T12:23:45.960Z,18.60
2019-05-29T12:28:48.621Z,18.80
2019-05-29T12:33:51.287Z,19.30
2019-05-29T12:38:55.219Z,19.80
2019-05-29T12:43:59.393Z,19.70
2019-05-29T12:49:02.238Z,19.50
2019-05-29T12:54:05.263Z,19.50
2019-05-29T12:59:08.121Z,19.30
2019-05-29T13:04:10.857Z,19.40
2019-05-29T13:09:13.581Z,19.20
2019-05-29T13:14:16.633Z,19.40
2019-05-29T13:19:19.287Z,19.70
2019-05-29T13:24:21.939Z,20.50
2019-05-29T13:29:24.925Z,21.50
2019-05-29T13:34:27.585Z,22.50
2019-05-29T13:39:30.246Z,22.70
2019-05-29T13:44:32.993Z,23.00
2019-05-29T13:49:36.029Z,23.50
2019-05-29T13:54:38.749Z,23.90
2019-05-29T13:59:41.475Z,24.50
2019-05-29T14:04:44.137Z,24.30
2019-05-29T14:09:47.113Z,23.70
2019-05-29T14:14:49.791Z,24.10
2019-05-29T14:19:52.522Z,24.40
2019-05-29T14:24:55.342Z,24.40
2019-05-29T14:29:58.071Z,25.10
2019-05-29T14:35:03.741Z,25.30
2019-05-29T14:40:07.766Z,25.70
2019-05-29T14:45:12.870Z,25.60
2019-05-29T14:50:15.880Z,25.20
2019-05-29T14:55:18.872Z,25.80
2019-05-29T15:00:25.415Z,25.40
2019-05-29T15:05:26.633Z,26.10
2019-05-29T15:10:29.376Z,26.00
2019-05-29T15:15:32.108Z,25.60
2019-05-29T15:20:34.778Z,25.30
2019-05-29T15:25:37.537Z,26.00
2019-05-29T15:30:40.254Z,26.10
2019-05-29T15:35:42.938Z,25.80
2019-05-29T15:40:45.613Z,25.20
2019-05-29T15:45:48.601Z,24.10
2019-05-29T15:50:51.268Z,24.10
2019-05-29T15:55:54.014Z,23.90
2019-05-29T16:00:56.686Z,24.70
2019-05-29T16:05:59.423Z,24.50
2019-05-29T16:11:02.157Z,25.20
2019-05-29T16:16:04.885Z,24.70
2019-05-29T16:21:07.610Z,24.30
2019-05-29T16:26:11.029Z,23.30
2019-05-29T16:31:14.921Z,23.00
2019-05-29T16:36:18.673Z,22.70
2019-05-29T16:41:21.992Z,24.10
2019-05-29T16:46:24.837Z,25.20
2019-05-29T16:51:27.558Z,26.80
2019-05-29T16:56:30.220Z,27.10
2019-05-29T17:01:32.970Z,27.00
2019-05-29T17:06:35.782Z,27.20
2019-05-29T17:11:38.454Z,27.90
2019-05-29T17:16:41.287Z,28.50
2019-05-29T17:21:43.957Z,28.90
2019-05-29T17:26:46.673Z,28.50
2019-05-29T17:31:49.343Z,28.10
2019-05-29T17:36:52.077Z,27.70
2019-05-29T17:41:54.816Z,25.90
2019-05-29T17:46:58.553Z,24.50
2019-05-29T17:52:01.562Z,23.40
2019-05-29T17:57:04.391Z,22.50
2019-05-29T18:02:07.707Z,21.90
2019-05-29T18:07:10.440Z,21.30
2019-05-29T18:12:13.099Z,21.20
2019-05-29T18:17:17.353Z,21.20
2019-05-29T18:22:21.515Z,20.80
2019-05-29T18:27:24.443Z,20.60
2019-05-29T18:32:28.917Z,20.30
2019-05-29T18:37:32.461Z,20.20
2019-05-29T18:42:36.023Z,20.20
2019-05-29T18:47:38.681Z,20.10
2019-05-29T18:52:41.347Z,20.00
2019-05-29T18:57:44.489Z,20.00
2019-05-29T19:02:47.155Z,19.70
2019-05-29T19:07:49.892Z,19.90
2019-05-29T19:12:52.623Z,19.80
2019-05-29T19:17:55.296Z,19.70
2019-05-29T19:22:57.945Z,19.60
2019-05-29T19:28:00.602Z,19.70
2019-05-29T19:33:03.358Z,19.50
2019-05-29T19:38:06.057Z,19.40
2019-05-29T19:43:08.730Z,19.20
2019-05-29T19:48:11.459Z,19.20
2019-05-29T19:53:14.176Z,19.10
2019-05-29T19:58:16.854Z,18.90
2019-05-29T20:03:20.169Z,18.80
2019-05-29T20:08:22.962Z,18.90
2019-05-29T20:13:25.696Z,18.90
2019-05-29T20:18:28.384Z,18.90
2019-05-29T20:23:31.055Z,19.00
2019-05-29T20:28:34.273Z,19.00
2019-05-29T20:33:37.049Z,18.90
2019-05-29T20:38:41.269Z,19.00
2019-05-29T20:43:44.425Z,19.00
2019-05-29T20:48:47.070Z,18.90
2019-05-29T20:53:49.743Z,18.80
2019-05-29T20:58:52.414Z,18.90
2019-05-29T21:03:55.086Z,18.80
2019-05-29T21:08:57.772Z,18.80
2019-05-29T21:14:00.505Z,18.80
2019-05-29T21:19:03.303Z,18.70
2019-05-29T21:24:05.975Z,18.60
2019-05-29T21:29:08.706Z,18.60
2019-05-29T21:34:11.465Z,18.50
2019-05-29T21:39:14.708Z,18.50
2019-05-29T21:44:17.387Z,18.50
2019-05-29T21:49:20.127Z,18.40
2019-05-29T21:54:22.875Z,18.50
2019-05-29T21:59:25.523Z,18.40
2019-05-29T22:04:28.458Z,18.40
2019-05-29T22:09:31.246Z,18.30
2019-05-29T22:14:33.901Z,18.10
2019-05-29T22:19:36.635Z,18.00
2019-05-29T22:24:39.311Z,18.00
2019-05-29T22:29:42.053Z,18.00
2019-05-29T22:34:44.784Z,17.90
2019-05-29T22:39:47.442Z,18.00
2019-05-29T22:44:51.511Z,17.90
2019-05-29T22:49:55.797Z,17.90
2019-05-29T22:54:59.923Z,17.90
2019-05-29T23:00:05.476Z,17.90
2019-05-29T23:05:08.550Z,17.90
2019-05-29T23:10:12.653Z,17.90
2019-05-29T23:15:15.436Z,17.80
2019-05-29T23:20:18.258Z,17.70
2019-05-29T23:25:20.977Z,17.60
2019-05-29T23:30:24.080Z,17.60
2019-05-29T23:35:27.085Z,17.60
2019-05-29T23:40:29.737Z,17.50
2019-05-29T23:45:32.454Z,17.50
2019-05-29T23:50:35.163Z,17.40
2019-05-29T23:55:37.874Z,17.40
